sensor_id;sensor_type;location;lat;lon;timestamp;P1;durP1;ratioP1;P2;durP2;ratioP2
28028;SDS011;15345;59.364;18.016;2023-02-22T00:00:13;3.40;;;3.10;;
28028;SDS011;15345;59.364;18.016;2023-02-22T00:01:46;2.88;;;2.65;;
28028;SDS011;15345;59.364;18.016;2023-02-22T00:04:28;3.63;;;3.33;;
28028;SDS011;15345;59.364;18.016;2023-02-22T00:05:47;4.10;;;2.83;;
28028;SDS011;15345;59.364;18.016;2023-02-22T00:07:09;3.30;;;3.00;;
28028;SDS011;15345;59.364;18.016;2023-02-22T00:08:29;3.53;;;2.90;;
28028;SDS011;15345;59.364;18.016;2023-02-22T00:09:48;3.40;;;3.10;;
28028;SDS011;15345;59.364;18.016;2023-02-22T00:11:07;4.55;;;3.28;;
28028;SDS011;15345;59.364;18.016;2023-02-22T00:12:26;4.07;;;3.67;;
28028;SDS011;15345;59.364;18.016;2023-02-22T00:13:46;5.10;;;3.15;;
28028;SDS011;15345;59.364;18.016;2023-02-22T00:15:08;3.47;;;3.03;;
28028;SDS011;15345;59.364;18.016;2023-02-22T00:16:27;3.45;;;3.15;;
28028;SDS011;15345;59.364;18.016;2023-02-22T00:17:48;3.05;;;2.78;;
28028;SDS011;15345;59.364;18.016;2023-02-22T00:19:07;3.40;;;3.10;;
28028;SDS011;15345;59.364;18.016;2023-02-22T00:20:27;3.13;;;2.92;;
28028;SDS011;15345;59.364;18.016;2023-02-22T00:21:50;3.90;;;3.13;;
28028;SDS011;15345;59.364;18.016;2023-02-22T00:23:15;3.30;;;3.00;;
28028;SDS011;15345;59.364;18.016;2023-02-22T00:24:33;3.15;;;2.85;;
28028;SDS011;15345;59.364;18.016;2023-02-22T00:25:54;3.45;;;3.15;;
28028;SDS011;15345;59.364;18.016;2023-02-22T00:27:14;3.63;;;2.90;;
28028;SDS011;15345;59.364;18.016;2023-02-22T00:28:33;3.40;;;3.10;;
28028;SDS011;15345;59.364;18.016;2023-02-22T00:29:51;3.17;;;2.88;;
28028;SDS011;15345;59.364;18.016;2023-02-22T00:31:10;3.38;;;2.90;;
28028;SDS011;15345;59.364;18.016;2023-02-22T00:32:29;3.28;;;2.97;;
28028;SDS011;15345;59.364;18.016;2023-02-22T00:33:48;3.40;;;3.13;;
28028;SDS011;15345;59.364;18.016;2023-02-22T00:35:07;3.80;;;3.30;;
28028;SDS011;15345;59.364;18.016;2023-02-22T00:36:26;2.70;;;2.50;;
28028;SDS011;15345;59.364;18.016;2023-02-22T00:37:49;3.22;;;3.00;;
28028;SDS011;15345;59.364;18.016;2023-02-22T00:39:08;3.50;;;3.17;;
28028;SDS011;15345;59.364;18.016;2023-02-22T00:40:29;3.00;;;2.80;;
28028;SDS011;15345;59.364;18.016;2023-02-22T00:41:48;3.15;;;2.95;;
28028;SDS011;15345;59.364;18.016;2023-02-22T00:43:07;2.92;;;2.72;;
28028;SDS011;15345;59.364;18.016;2023-02-22T00:44:26;3.13;;;2.72;;
28028;SDS011;15345;59.364;18.016;2023-02-22T00:45:46;3.58;;;3.28;;
28028;SDS011;15345;59.364;18.016;2023-02-22T00:47:06;3.63;;;3.30;;
28028;SDS011;15345;59.364;18.016;2023-02-22T00:48:26;3.63;;;2.78;;
28028;SDS011;15345;59.364;18.016;2023-02-22T00:49:46;3.05;;;2.85;;
28028;SDS011;15345;59.364;18.016;2023-02-22T00:51:05;3.20;;;2.95;;
28028;SDS011;15345;59.364;18.016;2023-02-22T00:52:24;3.25;;;2.88;;
28028;SDS011;15345;59.364;18.016;2023-02-22T00:53:43;3.05;;;2.75;;
28028;SDS011;15345;59.364;18.016;2023-02-22T00:55:07;3.22;;;3.03;;
28028;SDS011;15345;59.364;18.016;2023-02-22T00:56:26;3.10;;;2.83;;
28028;SDS011;15345;59.364;18.016;2023-02-22T00:57:45;3.50;;;3.20;;
28028;SDS011;15345;59.364;18.016;2023-02-22T00:59:04;3.25;;;2.95;;
28028;SDS011;15345;59.364;18.016;2023-02-22T01:00:41;3.42;;;3.13;;
28028;SDS011;15345;59.364;18.016;2023-02-22T01:02:00;3.13;;;2.92;;
28028;SDS011;15345;59.364;18.016;2023-02-22T01:03:19;3.30;;;3.00;;
28028;SDS011;15345;59.364;18.016;2023-02-22T01:04:39;2.83;;;2.63;;
28028;SDS011;15345;59.364;18.016;2023-02-22T01:05:57;3.25;;;2.95;;
28028;SDS011;15345;59.364;18.016;2023-02-22T01:07:16;3.60;;;2.90;;
28028;SDS011;15345;59.364;18.016;2023-02-22T01:08:35;3.80;;;3.03;;
28028;SDS011;15345;59.364;18.016;2023-02-22T01:09:54;2.92;;;2.72;;
28028;SDS011;15345;59.364;18.016;2023-02-22T01:11:14;3.00;;;2.70;;
28028;SDS011;15345;59.364;18.016;2023-02-22T01:12:34;4.10;;;2.75;;
28028;SDS011;15345;59.364;18.016;2023-02-22T01:13:53;3.22;;;2.92;;
28028;SDS011;15345;59.364;18.016;2023-02-22T01:15:13;3.15;;;2.90;;
28028;SDS011;15345;59.364;18.016;2023-02-22T01:16:32;3.25;;;2.90;;
28028;SDS011;15345;59.364;18.016;2023-02-22T01:17:52;5.45;;;2.90;;
28028;SDS011;15345;59.364;18.016;2023-02-22T01:19:11;3.20;;;2.90;;
28028;SDS011;15345;59.364;18.016;2023-02-22T01:20:30;3.40;;;3.10;;
28028;SDS011;15345;59.364;18.016;2023-02-22T01:21:50;3.40;;;3.10;;
28028;SDS011;15345;59.364;18.016;2023-02-22T01:23:09;3.38;;;2.85;;
28028;SDS011;15345;59.364;18.016;2023-02-22T01:24:28;4.45;;;3.22;;
28028;SDS011;15345;59.364;18.016;2023-02-22T01:25:47;3.30;;;3.00;;
28028;SDS011;15345;59.364;18.016;2023-02-22T01:27:06;3.28;;;3.08;;
28028;SDS011;15345;59.364;18.016;2023-02-22T01:28:25;3.95;;;3.13;;
28028;SDS011;15345;59.364;18.016;2023-02-22T01:29:44;2.90;;;2.70;;
28028;SDS011;15345;59.364;18.016;2023-02-22T01:31:03;3.10;;;2.90;;
28028;SDS011;15345;59.364;18.016;2023-02-22T01:32:22;3.95;;;3.17;;
28028;SDS011;15345;59.364;18.016;2023-02-22T01:33:41;3.65;;;3.35;;
28028;SDS011;15345;59.364;18.016;2023-02-22T01:35:02;3.22;;;2.90;;
28028;SDS011;15345;59.364;18.016;2023-02-22T01:36:22;3.67;;;3.38;;
28028;SDS011;15345;59.364;18.016;2023-02-22T01:37:41;3.60;;;3.15;;
28028;SDS011;15345;59.364;18.016;2023-02-22T01:39:00;3.72;;;3.35;;
28028;SDS011;15345;59.364;18.016;2023-02-22T01:40:21;3.70;;;3.38;;
28028;SDS011;15345;59.364;18.016;2023-02-22T01:41:41;2.90;;;2.70;;
28028;SDS011;15345;59.364;18.016;2023-02-22T01:43:01;3.40;;;3.00;;
28028;SDS011;15345;59.364;18.016;2023-02-22T01:44:26;3.60;;;3.10;;
28028;SDS011;15345;59.364;18.016;2023-02-22T01:45:52;5.03;;;3.22;;
28028;SDS011;15345;59.364;18.016;2023-02-22T01:47:12;3.63;;;3.03;;
28028;SDS011;15345;59.364;18.016;2023-02-22T01:48:42;3.22;;;2.92;;
28028;SDS011;15345;59.364;18.016;2023-02-22T01:50:02;3.88;;;3.47;;
28028;SDS011;15345;59.364;18.016;2023-02-22T01:51:23;3.80;;;3.30;;
28028;SDS011;15345;59.364;18.016;2023-02-22T01:52:43;5.13;;;3.13;;
28028;SDS011;15345;59.364;18.016;2023-02-22T01:54:05;3.17;;;2.97;;
28028;SDS011;15345;59.364;18.016;2023-02-22T01:55:25;3.78;;;3.35;;
28028;SDS011;15345;59.364;18.016;2023-02-22T01:56:46;3.15;;;2.67;;
28028;SDS011;15345;59.364;18.016;2023-02-22T01:58:07;4.70;;;3.42;;
28028;SDS011;15345;59.364;18.016;2023-02-22T01:59:27;3.25;;;2.95;;
28028;SDS011;15345;59.364;18.016;2023-02-22T02:00:47;2.90;;;2.70;;
28028;SDS011;15345;59.364;18.016;2023-02-22T02:02:06;3.28;;;2.97;;
28028;SDS011;15345;59.364;18.016;2023-02-22T02:03:25;3.88;;;3.45;;
28028;SDS011;15345;59.364;18.016;2023-02-22T02:04:46;3.35;;;3.05;;
28028;SDS011;15345;59.364;18.016;2023-02-22T02:06:07;3.65;;;3.33;;
28028;SDS011;15345;59.364;18.016;2023-02-22T02:07:29;3.47;;;3.17;;
28028;SDS011;15345;59.364;18.016;2023-02-22T02:08:51;3.83;;;3.15;;
28028;SDS011;15345;59.364;18.016;2023-02-22T02:10:12;3.45;;;3.15;;
28028;SDS011;15345;59.364;18.016;2023-02-22T02:11:33;3.97;;;3.38;;
28028;SDS011;15345;59.364;18.016;2023-02-22T02:12:52;4.80;;;3.47;;
28028;SDS011;15345;59.364;18.016;2023-02-22T02:14:11;3.00;;;2.70;;
28028;SDS011;15345;59.364;18.016;2023-02-22T02:15:31;3.72;;;3.42;;
28028;SDS011;15345;59.364;18.016;2023-02-22T02:16:50;3.80;;;3.50;;
28028;SDS011;15345;59.364;18.016;2023-02-22T02:18:11;4.32;;;3.30;;
28028;SDS011;15345;59.364;18.016;2023-02-22T02:19:37;3.67;;;3.38;;
28028;SDS011;15345;59.364;18.016;2023-02-22T02:21:09;4.15;;;3.53;;
28028;SDS011;15345;59.364;18.016;2023-02-22T02:27:46;3.38;;;3.08;;
28028;SDS011;15345;59.364;18.016;2023-02-22T02:29:14;3.60;;;3.30;;
28028;SDS011;15345;59.364;18.016;2023-02-22T02:31:01;4.18;;;3.28;;
28028;SDS011;15345;59.364;18.016;2023-02-22T02:38:10;4.18;;;3.88;;
28028;SDS011;15345;59.364;18.016;2023-02-22T02:42:24;4.07;;;3.42;;
28028;SDS011;15345;59.364;18.016;2023-02-22T02:45:10;4.32;;;3.47;;
28028;SDS011;15345;59.364;18.016;2023-02-22T02:46:43;3.28;;;3.08;;
28028;SDS011;15345;59.364;18.016;2023-02-22T02:48:04;3.95;;;3.58;;
28028;SDS011;15345;59.364;18.016;2023-02-22T02:49:29;4.00;;;3.60;;
28028;SDS011;15345;59.364;18.016;2023-02-22T02:50:49;4.05;;;3.03;;
28028;SDS011;15345;59.364;18.016;2023-02-22T02:52:09;4.05;;;3.65;;
28028;SDS011;15345;59.364;18.016;2023-02-22T02:53:31;3.13;;;2.83;;
28028;SDS011;15345;59.364;18.016;2023-02-22T02:54:52;3.00;;;2.80;;
28028;SDS011;15345;59.364;18.016;2023-02-22T02:56:12;4.05;;;3.55;;
28028;SDS011;15345;59.364;18.016;2023-02-22T02:57:31;3.53;;;3.15;;
28028;SDS011;15345;59.364;18.016;2023-02-22T02:58:50;4.22;;;3.22;;
28028;SDS011;15345;59.364;18.016;2023-02-22T03:00:10;3.70;;;3.38;;
28028;SDS011;15345;59.364;18.016;2023-02-22T03:01:44;3.88;;;3.58;;
28028;SDS011;15345;59.364;18.016;2023-02-22T03:03:21;3.40;;;3.10;;
28028;SDS011;15345;59.364;18.016;2023-02-22T03:09:33;3.38;;;3.08;;
28028;SDS011;15345;59.364;18.016;2023-02-22T03:11:05;3.53;;;3.22;;
28028;SDS011;15345;59.364;18.016;2023-02-22T03:15:32;4.50;;;3.92;;
28028;SDS011;15345;59.364;18.016;2023-02-22T03:17:00;3.35;;;3.05;;
28028;SDS011;15345;59.364;18.016;2023-02-22T03:19:53;3.30;;;2.97;;
28028;SDS011;15345;59.364;18.016;2023-02-22T03:21:33;3.58;;;2.95;;
28028;SDS011;15345;59.364;18.016;2023-02-22T03:22:57;4.45;;;3.95;;
28028;SDS011;15345;59.364;18.016;2023-02-22T03:25:39;3.63;;;3.33;;
28028;SDS011;15345;59.364;18.016;2023-02-22T03:27:10;4.78;;;4.22;;
28028;SDS011;15345;59.364;18.016;2023-02-22T03:28:30;3.97;;;3.55;;
28028;SDS011;15345;59.364;18.016;2023-02-22T03:29:50;3.65;;;3.28;;
28028;SDS011;15345;59.364;18.016;2023-02-22T03:31:14;4.22;;;3.22;;
28028;SDS011;15345;59.364;18.016;2023-02-22T03:32:37;3.28;;;3.05;;
28028;SDS011;15345;59.364;18.016;2023-02-22T03:34:01;3.00;;;2.80;;
28028;SDS011;15345;59.364;18.016;2023-02-22T03:35:23;3.75;;;3.33;;
28028;SDS011;15345;59.364;18.016;2023-02-22T03:36:44;3.30;;;3.10;;
28028;SDS011;15345;59.364;18.016;2023-02-22T03:38:05;3.58;;;3.28;;
28028;SDS011;15345;59.364;18.016;2023-02-22T03:39:25;4.35;;;3.28;;
28028;SDS011;15345;59.364;18.016;2023-02-22T03:40:49;3.45;;;3.00;;
28028;SDS011;15345;59.364;18.016;2023-02-22T03:42:11;4.13;;;2.85;;
28028;SDS011;15345;59.364;18.016;2023-02-22T03:43:37;3.53;;;3.20;;
28028;SDS011;15345;59.364;18.016;2023-02-22T03:44:57;3.83;;;3.45;;
28028;SDS011;15345;59.364;18.016;2023-02-22T03:46:17;3.47;;;3.17;;
28028;SDS011;15345;59.364;18.016;2023-02-22T03:47:41;4.10;;;3.40;;
28028;SDS011;15345;59.364;18.016;2023-02-22T03:49:03;3.60;;;3.30;;
28028;SDS011;15345;59.364;18.016;2023-02-22T03:50:27;3.47;;;3.25;;
28028;SDS011;15345;59.364;18.016;2023-02-22T03:51:47;3.40;;;3.20;;
28028;SDS011;15345;59.364;18.016;2023-02-22T03:53:06;3.80;;;3.50;;
28028;SDS011;15345;59.364;18.016;2023-02-22T03:54:25;5.55;;;3.45;;
28028;SDS011;15345;59.364;18.016;2023-02-22T03:55:45;3.90;;;3.60;;
28028;SDS011;15345;59.364;18.016;2023-02-22T03:57:11;3.40;;;3.10;;
28028;SDS011;15345;59.364;18.016;2023-02-22T03:58:30;3.38;;;3.08;;
28028;SDS011;15345;59.364;18.016;2023-02-22T03:59:51;3.60;;;3.30;;
28028;SDS011;15345;59.364;18.016;2023-02-22T04:01:10;3.75;;;3.45;;
28028;SDS011;15345;59.364;18.016;2023-02-22T04:02:29;3.70;;;3.40;;
28028;SDS011;15345;59.364;18.016;2023-02-22T04:03:49;3.58;;;3.28;;
28028;SDS011;15345;59.364;18.016;2023-02-22T04:05:08;4.65;;;3.00;;
28028;SDS011;15345;59.364;18.016;2023-02-22T04:06:27;3.97;;;2.80;;
28028;SDS011;15345;59.364;18.016;2023-02-22T04:07:46;4.47;;;3.70;;
28028;SDS011;15345;59.364;18.016;2023-02-22T04:09:05;6.03;;;3.70;;
28028;SDS011;15345;59.364;18.016;2023-02-22T04:10:26;4.63;;;3.45;;
28028;SDS011;15345;59.364;18.016;2023-02-22T04:11:45;4.05;;;3.50;;
28028;SDS011;15345;59.364;18.016;2023-02-22T04:13:04;13.90;;;3.85;;
28028;SDS011;15345;59.364;18.016;2023-02-22T04:14:26;3.90;;;3.60;;
28028;SDS011;15345;59.364;18.016;2023-02-22T04:15:45;3.67;;;3.38;;
28028;SDS011;15345;59.364;18.016;2023-02-22T04:17:04;4.15;;;3.35;;
28028;SDS011;15345;59.364;18.016;2023-02-22T04:18:23;3.92;;;3.63;;
28028;SDS011;15345;59.364;18.016;2023-02-22T04:19:42;3.55;;;3.25;;
28028;SDS011;15345;59.364;18.016;2023-02-22T04:21:03;4.25;;;3.85;;
28028;SDS011;15345;59.364;18.016;2023-02-22T04:22:22;4.50;;;3.70;;
28028;SDS011;15345;59.364;18.016;2023-02-22T04:23:41;3.60;;;3.30;;
28028;SDS011;15345;59.364;18.016;2023-02-22T04:25:00;4.38;;;3.60;;
28028;SDS011;15345;59.364;18.016;2023-02-22T04:26:19;3.97;;;3.67;;
28028;SDS011;15345;59.364;18.016;2023-02-22T04:27:37;3.70;;;3.40;;
28028;SDS011;15345;59.364;18.016;2023-02-22T04:28:56;3.63;;;3.33;;
28028;SDS011;15345;59.364;18.016;2023-02-22T04:30:16;3.72;;;3.42;;
28028;SDS011;15345;59.364;18.016;2023-02-22T04:31:35;3.45;;;3.17;;
28028;SDS011;15345;59.364;18.016;2023-02-22T04:32:55;3.72;;;3.42;;
28028;SDS011;15345;59.364;18.016;2023-02-22T04:34:14;4.13;;;3.72;;
28028;SDS011;15345;59.364;18.016;2023-02-22T04:35:33;4.20;;;3.80;;
28028;SDS011;15345;59.364;18.016;2023-02-22T04:36:52;4.25;;;3.85;;
28028;SDS011;15345;59.364;18.016;2023-02-22T04:38:11;5.00;;;3.90;;
28028;SDS011;15345;59.364;18.016;2023-02-22T04:39:30;4.20;;;3.90;;
28028;SDS011;15345;59.364;18.016;2023-02-22T04:40:49;5.47;;;3.97;;
28028;SDS011;15345;59.364;18.016;2023-02-22T04:42:08;4.95;;;3.80;;
28028;SDS011;15345;59.364;18.016;2023-02-22T04:43:27;4.70;;;3.92;;
28028;SDS011;15345;59.364;18.016;2023-02-22T04:44:46;5.03;;;3.92;;
28028;SDS011;15345;59.364;18.016;2023-02-22T04:46:05;5.57;;;3.80;;
28028;SDS011;15345;59.364;18.016;2023-02-22T04:47:24;5.90;;;3.78;;
28028;SDS011;15345;59.364;18.016;2023-02-22T04:48:43;4.60;;;4.20;;
28028;SDS011;15345;59.364;18.016;2023-02-22T04:50:03;4.97;;;4.53;;
28028;SDS011;15345;59.364;18.016;2023-02-22T04:51:22;7.20;;;4.22;;
28028;SDS011;15345;59.364;18.016;2023-02-22T04:52:42;4.25;;;3.85;;
28028;SDS011;15345;59.364;18.016;2023-02-22T04:54:01;4.40;;;4.00;;
28028;SDS011;15345;59.364;18.016;2023-02-22T04:55:20;4.82;;;4.35;;
28028;SDS011;15345;59.364;18.016;2023-02-22T04:56:40;8.43;;;4.22;;
28028;SDS011;15345;59.364;18.016;2023-02-22T04:57:58;5.95;;;4.20;;
28028;SDS011;15345;59.364;18.016;2023-02-22T04:59:17;4.45;;;4.00;;
28028;SDS011;15345;59.364;18.016;2023-02-22T05:00:37;4.53;;;4.13;;
28028;SDS011;15345;59.364;18.016;2023-02-22T05:01:56;4.90;;;4.50;;
28028;SDS011;15345;59.364;18.016;2023-02-22T05:03:15;5.22;;;4.32;;
28028;SDS011;15345;59.364;18.016;2023-02-22T05:04:36;5.43;;;4.65;;
28028;SDS011;15345;59.364;18.016;2023-02-22T05:05:55;6.15;;;4.72;;
28028;SDS011;15345;59.364;18.016;2023-02-22T05:07:14;6.82;;;4.45;;
28028;SDS011;15345;59.364;18.016;2023-02-22T05:08:33;6.20;;;4.82;;
28028;SDS011;15345;59.364;18.016;2023-02-22T05:09:52;5.43;;;4.53;;
28028;SDS011;15345;59.364;18.016;2023-02-22T05:11:11;4.70;;;4.35;;
28028;SDS011;15345;59.364;18.016;2023-02-22T05:12:30;5.20;;;4.35;;
28028;SDS011;15345;59.364;18.016;2023-02-22T05:13:49;5.38;;;4.88;;
28028;SDS011;15345;59.364;18.016;2023-02-22T05:15:08;7.90;;;5.15;;
28028;SDS011;15345;59.364;18.016;2023-02-22T05:16:28;4.85;;;4.18;;
28028;SDS011;15345;59.364;18.016;2023-02-22T05:17:46;5.95;;;5.05;;
28028;SDS011;15345;59.364;18.016;2023-02-22T05:19:06;5.72;;;4.82;;
28028;SDS011;15345;59.364;18.016;2023-02-22T05:20:26;5.00;;;4.53;;
28028;SDS011;15345;59.364;18.016;2023-02-22T05:21:45;5.97;;;4.88;;
28028;SDS011;15345;59.364;18.016;2023-02-22T05:23:04;5.70;;;5.18;;
28028;SDS011;15345;59.364;18.016;2023-02-22T05:24:23;6.38;;;4.93;;
28028;SDS011;15345;59.364;18.016;2023-02-22T05:25:42;6.32;;;5.57;;
28028;SDS011;15345;59.364;18.016;2023-02-22T05:27:02;6.20;;;4.70;;
28028;SDS011;15345;59.364;18.016;2023-02-22T05:28:21;6.03;;;5.32;;
28028;SDS011;15345;59.364;18.016;2023-02-22T05:29:39;7.95;;;5.07;;
28028;SDS011;15345;59.364;18.016;2023-02-22T05:30:59;7.00;;;5.55;;
28028;SDS011;15345;59.364;18.016;2023-02-22T05:32:18;6.15;;;5.05;;
28028;SDS011;15345;59.364;18.016;2023-02-22T05:33:37;5.72;;;5.22;;
28028;SDS011;15345;59.364;18.016;2023-02-22T05:34:57;5.68;;;5.07;;
28028;SDS011;15345;59.364;18.016;2023-02-22T05:36:16;9.95;;;5.57;;
28028;SDS011;15345;59.364;18.016;2023-02-22T05:37:35;6.68;;;5.68;;
28028;SDS011;15345;59.364;18.016;2023-02-22T05:38:55;7.60;;;5.47;;
28028;SDS011;15345;59.364;18.016;2023-02-22T05:40:14;9.48;;;5.47;;
28028;SDS011;15345;59.364;18.016;2023-02-22T05:41:33;7.85;;;5.43;;
28028;SDS011;15345;59.364;18.016;2023-02-22T05:42:52;5.55;;;4.90;;
28028;SDS011;15345;59.364;18.016;2023-02-22T05:44:11;6.60;;;5.43;;
28028;SDS011;15345;59.364;18.016;2023-02-22T05:45:30;7.20;;;5.55;;
28028;SDS011;15345;59.364;18.016;2023-02-22T05:46:49;7.20;;;5.47;;
28028;SDS011;15345;59.364;18.016;2023-02-22T05:48:08;5.95;;;5.40;;
28028;SDS011;15345;59.364;18.016;2023-02-22T05:49:27;9.15;;;5.65;;
28028;SDS011;15345;59.364;18.016;2023-02-22T05:50:46;6.47;;;5.60;;
28028;SDS011;15345;59.364;18.016;2023-02-22T05:52:07;7.13;;;5.47;;
28028;SDS011;15345;59.364;18.016;2023-02-22T05:53:26;6.30;;;5.65;;
28028;SDS011;15345;59.364;18.016;2023-02-22T05:54:45;5.65;;;5.03;;
28028;SDS011;15345;59.364;18.016;2023-02-22T05:56:04;9.48;;;6.55;;
28028;SDS011;15345;59.364;18.016;2023-02-22T05:57:23;9.02;;;6.18;;
28028;SDS011;15345;59.364;18.016;2023-02-22T05:58:42;7.60;;;5.43;;
28028;SDS011;15345;59.364;18.016;2023-02-22T06:00:02;10.07;;;6.35;;
28028;SDS011;15345;59.364;18.016;2023-02-22T06:01:22;6.68;;;5.90;;
28028;SDS011;15345;59.364;18.016;2023-02-22T06:02:41;9.77;;;6.15;;
28028;SDS011;15345;59.364;18.016;2023-02-22T06:04:00;6.47;;;5.82;;
28028;SDS011;15345;59.364;18.016;2023-02-22T06:05:19;6.95;;;5.75;;
28028;SDS011;15345;59.364;18.016;2023-02-22T06:06:38;6.07;;;5.47;;
28028;SDS011;15345;59.364;18.016;2023-02-22T06:07:57;6.20;;;5.45;;
28028;SDS011;15345;59.364;18.016;2023-02-22T06:09:16;8.52;;;5.70;;
28028;SDS011;15345;59.364;18.016;2023-02-22T06:10:35;12.05;;;6.10;;
28028;SDS011;15345;59.364;18.016;2023-02-22T06:11:54;12.88;;;6.03;;
28028;SDS011;15345;59.364;18.016;2023-02-22T06:13:13;13.20;;;6.78;;
28028;SDS011;15345;59.364;18.016;2023-02-22T06:14:32;12.45;;;6.07;;
28028;SDS011;15345;59.364;18.016;2023-02-22T06:15:51;10.00;;;7.40;;
28028;SDS011;15345;59.364;18.016;2023-02-22T06:17:11;9.73;;;7.57;;
28028;SDS011;15345;59.364;18.016;2023-02-22T06:18:30;7.38;;;6.22;;
28028;SDS011;15345;59.364;18.016;2023-02-22T06:19:50;6.28;;;5.70;;
28028;SDS011;15345;59.364;18.016;2023-02-22T06:21:09;10.25;;;8.48;;
28028;SDS011;15345;59.364;18.016;2023-02-22T06:22:28;13.93;;;9.20;;
28028;SDS011;15345;59.364;18.016;2023-02-22T06:23:47;10.40;;;6.75;;
28028;SDS011;15345;59.364;18.016;2023-02-22T06:25:06;15.32;;;9.65;;
28028;SDS011;15345;59.364;18.016;2023-02-22T06:26:26;11.10;;;7.30;;
28028;SDS011;15345;59.364;18.016;2023-02-22T06:27:45;7.13;;;6.22;;
28028;SDS011;15345;59.364;18.016;2023-02-22T06:29:04;8.43;;;6.13;;
28028;SDS011;15345;59.364;18.016;2023-02-22T06:30:24;7.80;;;6.22;;
28028;SDS011;15345;59.364;18.016;2023-02-22T06:31:43;8.13;;;6.00;;
28028;SDS011;15345;59.364;18.016;2023-02-22T06:33:02;6.65;;;5.95;;
28028;SDS011;15345;59.364;18.016;2023-02-22T06:34:21;13.15;;;8.90;;
28028;SDS011;15345;59.364;18.016;2023-02-22T06:35:40;24.90;;;14.30;;
28028;SDS011;15345;59.364;18.016;2023-02-22T06:37:00;12.25;;;7.43;;
28028;SDS011;15345;59.364;18.016;2023-02-22T06:38:19;6.72;;;6.07;;
28028;SDS011;15345;59.364;18.016;2023-02-22T06:39:39;9.65;;;7.00;;
28028;SDS011;15345;59.364;18.016;2023-02-22T06:40:58;10.85;;;6.75;;
28028;SDS011;15345;59.364;18.016;2023-02-22T06:42:17;9.63;;;6.88;;
28028;SDS011;15345;59.364;18.016;2023-02-22T06:43:36;8.20;;;6.47;;
28028;SDS011;15345;59.364;18.016;2023-02-22T06:44:55;9.25;;;6.80;;
28028;SDS011;15345;59.364;18.016;2023-02-22T06:46:14;11.30;;;6.82;;
28028;SDS011;15345;59.364;18.016;2023-02-22T06:47:37;13.02;;;7.63;;
28028;SDS011;15345;59.364;18.016;2023-02-22T06:48:57;8.27;;;6.80;;
28028;SDS011;15345;59.364;18.016;2023-02-22T06:50:24;12.07;;;6.45;;
28028;SDS011;15345;59.364;18.016;2023-02-22T06:51:44;8.77;;;6.30;;
28028;SDS011;15345;59.364;18.016;2023-02-22T06:53:03;7.85;;;6.68;;
28028;SDS011;15345;59.364;18.016;2023-02-22T06:54:23;10.18;;;6.43;;
28028;SDS011;15345;59.364;18.016;2023-02-22T06:55:42;11.35;;;7.10;;
28028;SDS011;15345;59.364;18.016;2023-02-22T06:57:01;10.85;;;6.75;;
28028;SDS011;15345;59.364;18.016;2023-02-22T06:58:20;10.30;;;7.50;;
28028;SDS011;15345;59.364;18.016;2023-02-22T06:59:39;8.77;;;6.68;;
28028;SDS011;15345;59.364;18.016;2023-02-22T07:00:58;9.80;;;7.05;;
28028;SDS011;15345;59.364;18.016;2023-02-22T07:02:18;10.20;;;6.40;;
28028;SDS011;15345;59.364;18.016;2023-02-22T07:03:37;11.63;;;7.10;;
28028;SDS011;15345;59.364;18.016;2023-02-22T07:04:56;11.50;;;7.53;;
28028;SDS011;15345;59.364;18.016;2023-02-22T07:06:15;16.15;;;7.70;;
28028;SDS011;15345;59.364;18.016;2023-02-22T07:07:34;9.70;;;7.25;;
28028;SDS011;15345;59.364;18.016;2023-02-22T07:08:53;12.95;;;7.32;;
28028;SDS011;15345;59.364;18.016;2023-02-22T07:10:17;14.82;;;7.75;;
28028;SDS011;15345;59.364;18.016;2023-02-22T07:11:37;17.25;;;8.35;;
28028;SDS011;15345;59.364;18.016;2023-02-22T07:12:56;13.90;;;8.38;;
28028;SDS011;15345;59.364;18.016;2023-02-22T07:14:16;14.63;;;8.55;;
28028;SDS011;15345;59.364;18.016;2023-02-22T07:15:35;14.25;;;8.35;;
28028;SDS011;15345;59.364;18.016;2023-02-22T07:16:54;10.63;;;7.75;;
28028;SDS011;15345;59.364;18.016;2023-02-22T07:18:13;8.95;;;6.85;;
28028;SDS011;15345;59.364;18.016;2023-02-22T07:19:33;10.23;;;7.35;;
28028;SDS011;15345;59.364;18.016;2023-02-22T07:20:52;10.35;;;7.38;;
28028;SDS011;15345;59.364;18.016;2023-02-22T07:22:11;13.45;;;7.07;;
28028;SDS011;15345;59.364;18.016;2023-02-22T07:23:30;17.40;;;7.88;;
28028;SDS011;15345;59.364;18.016;2023-02-22T07:24:49;13.10;;;6.90;;
28028;SDS011;15345;59.364;18.016;2023-02-22T07:26:08;16.20;;;8.13;;
28028;SDS011;15345;59.364;18.016;2023-02-22T07:27:27;13.23;;;8.07;;
28028;SDS011;15345;59.364;18.016;2023-02-22T07:28:46;13.18;;;7.65;;
28028;SDS011;15345;59.364;18.016;2023-02-22T07:30:05;9.25;;;6.68;;
28028;SDS011;15345;59.364;18.016;2023-02-22T07:31:25;9.20;;;6.93;;
28028;SDS011;15345;59.364;18.016;2023-02-22T07:32:44;10.32;;;7.45;;
28028;SDS011;15345;59.364;18.016;2023-02-22T07:34:03;11.05;;;7.78;;
28028;SDS011;15345;59.364;18.016;2023-02-22T07:35:23;7.80;;;7.05;;
28028;SDS011;15345;59.364;18.016;2023-02-22T07:36:43;8.23;;;6.95;;
28028;SDS011;15345;59.364;18.016;2023-02-22T07:38:03;7.63;;;6.35;;
28028;SDS011;15345;59.364;18.016;2023-02-22T07:39:23;7.35;;;6.35;;
28028;SDS011;15345;59.364;18.016;2023-02-22T07:40:42;10.77;;;6.13;;
28028;SDS011;15345;59.364;18.016;2023-02-22T07:42:01;8.80;;;6.60;;
28028;SDS011;15345;59.364;18.016;2023-02-22T07:43:21;14.57;;;7.32;;
28028;SDS011;15345;59.364;18.016;2023-02-22T07:44:40;9.18;;;6.72;;
28028;SDS011;15345;59.364;18.016;2023-02-22T07:45:59;10.13;;;6.75;;
28028;SDS011;15345;59.364;18.016;2023-02-22T07:47:20;8.27;;;6.47;;
28028;SDS011;15345;59.364;18.016;2023-02-22T07:48:39;9.52;;;6.88;;
28028;SDS011;15345;59.364;18.016;2023-02-22T07:49:58;21.02;;;7.00;;
28028;SDS011;15345;59.364;18.016;2023-02-22T07:51:17;14.82;;;6.85;;
28028;SDS011;15345;59.364;18.016;2023-02-22T07:52:38;17.50;;;7.13;;
28028;SDS011;15345;59.364;18.016;2023-02-22T07:53:57;8.13;;;6.65;;
28028;SDS011;15345;59.364;18.016;2023-02-22T07:55:17;12.80;;;7.47;;
28028;SDS011;15345;59.364;18.016;2023-02-22T07:56:36;7.57;;;6.18;;
28028;SDS011;15345;59.364;18.016;2023-02-22T07:57:56;9.40;;;6.35;;
28028;SDS011;15345;59.364;18.016;2023-02-22T07:59:15;10.68;;;6.63;;
28028;SDS011;15345;59.364;18.016;2023-02-22T08:00:35;10.68;;;6.38;;
28028;SDS011;15345;59.364;18.016;2023-02-22T08:01:55;8.45;;;6.70;;
28028;SDS011;15345;59.364;18.016;2023-02-22T08:03:15;10.02;;;6.80;;
28028;SDS011;15345;59.364;18.016;2023-02-22T08:04:34;7.80;;;6.90;;
28028;SDS011;15345;59.364;18.016;2023-02-22T08:05:54;9.05;;;6.75;;
28028;SDS011;15345;59.364;18.016;2023-02-22T08:07:13;8.05;;;6.47;;
28028;SDS011;15345;59.364;18.016;2023-02-22T08:08:32;9.18;;;6.75;;
28028;SDS011;15345;59.364;18.016;2023-02-22T08:09:52;9.15;;;6.85;;
28028;SDS011;15345;59.364;18.016;2023-02-22T08:11:11;9.00;;;6.63;;
28028;SDS011;15345;59.364;18.016;2023-02-22T08:12:30;11.02;;;6.45;;
28028;SDS011;15345;59.364;18.016;2023-02-22T08:13:49;15.93;;;6.45;;
28028;SDS011;15345;59.364;18.016;2023-02-22T08:15:13;8.32;;;5.93;;
28028;SDS011;15345;59.364;18.016;2023-02-22T08:16:33;10.98;;;6.30;;
28028;SDS011;15345;59.364;18.016;2023-02-22T08:17:51;13.93;;;5.63;;
28028;SDS011;15345;59.364;18.016;2023-02-22T08:19:11;7.93;;;6.07;;
28028;SDS011;15345;59.364;18.016;2023-02-22T08:20:30;8.75;;;5.75;;
28028;SDS011;15345;59.364;18.016;2023-02-22T08:21:49;8.70;;;6.18;;
28028;SDS011;15345;59.364;18.016;2023-02-22T08:23:08;7.55;;;5.68;;